Time;durP1;ratioP1;P1;durP2;ratioP2;P2;SDS_P1;SDS_P2;PMS_P1;PMS_P2;Temp;Humidity;BMP_temperature;BMP_pressure;BME280_temperature;BME280_humidity;BME280_pressure;Samples;Min_cycle;Max_cycle;Signal;HPM_P1;HPM_P2
2022/03/06 00:00:11;;;;;;;13.38;9.10;;;-1.10;61.90;;;;;;5067038;28;20203;-84
2022/03/06 00:02:40;;;;;;;11.88;9.25;;;-1.20;62.00;;;;;;5065646;28;20206;-84
2022/03/06 00:05:08;;;;;;;11.70;9.23;;;-1.20;67.00;;;;;;5061042;28;20236;-84
2022/03/06 00:07:35;;;;;;;13.25;7.80;;;-1.10;62.70;;;;;;5067164;28;20195;-84
2022/03/06 00:10:03;;;;;;;14.70;9.40;;;-1.20;75.10;;;;;;5062774;28;20290;-84
2022/03/06 00:12:30;;;;;;;12.60;7.97;;;-1.10;61.90;;;;;;5067384;28;20322;-84
2022/03/06 00:14:57;;;;;;;13.00;8.63;;;-1.10;62.10;;;;;;5067280;28;20211;-84
2022/03/06 00:17:24;;;;;;;19.02;11.60;;;-1.50;73.50;;;;;;5066625;28;20727;-84
2022/03/06 00:19:52;;;;;;;16.10;11.38;;;-1.10;62.40;;;;;;5066142;28;20257;-84
2022/03/06 00:22:19;;;;;;;15.70;9.73;;;-1.20;62.90;;;;;;5066906;28;20231;-84
2022/03/06 00:24:46;;;;;;;13.38;9.40;;;;;;;;;;5066909;28;20729;-84
2022/03/06 00:27:13;;;;;;;11.48;7.88;;;-1.10;62.00;;;;;;5066587;28;20210;-84
2022/03/06 00:29:40;;;;;;;10.50;8.27;;;;;;;;;;5066308;28;20200;-84
2022/03/06 00:32:08;;;;;;;14.95;8.90;;;-1.20;61.40;;;;;;5067364;28;20231;-84
2022/03/06 00:34:35;;;;;;;11.15;8.63;;;-1.20;75.60;;;;;;5066857;28;20291;-84
2022/03/06 00:37:05;;;;;;;14.25;9.20;;;-1.20;63.00;;;;;;5067256;28;20283;-84
2022/03/06 00:39:32;;;;;;;12.88;8.88;;;-1.20;62.90;;;;;;5065374;28;20280;-84
2022/03/06 00:41:59;;;;;;;13.68;8.55;;;-1.20;62.50;;;;;;5067483;28;20278;-84
2022/03/06 00:44:26;;;;;;;13.90;8.52;;;-1.40;75.90;;;;;;5066542;28;20238;-84
2022/03/06 00:46:53;;;;;;;17.27;10.05;;;;;;;;;;5066528;28;20207;-84
2022/03/06 00:49:20;;;;;;;17.50;10.57;;;;;;;;;;5066466;28;20249;-84
2022/03/06 00:51:47;;;;;;;10.48;8.05;;;;;;;;;;5066874;28;20211;-84
2022/03/06 00:54:15;;;;;;;14.48;9.13;;;-1.00;61.40;;;;;;5066439;28;20235;-84
2022/03/06 00:56:43;;;;;;;13.52;7.97;;;-0.90;61.90;;;;;;5068147;28;20666;-84
2022/03/06 00:59:09;;;;;;;12.05;8.13;;;-0.50;62.00;;;;;;5059994;28;20520;-84
2022/03/06 01:01:37;;;;;;;12.52;8.30;;;;;;;;;;5070006;28;20191;-84
2022/03/06 01:04:04;;;;;;;10.15;8.07;;;-0.60;60.30;;;;;;5056508;28;20623;-84
2022/03/06 01:06:31;;;;;;;11.70;8.93;;;;;;;;;;5068361;28;20230;-84
2022/03/06 01:08:59;;;;;;;10.95;8.00;;;;;;;;;;5067881;28;20209;-84
2022/03/06 01:11:28;;;;;;;13.57;8.32;;;-0.50;69.30;;;;;;5069572;28;20222;-84
2022/03/06 01:13:57;;;;;;;15.98;8.45;;;;;;;;;;5070237;28;20245;-84
2022/03/06 01:16:24;;;;;;;12.85;8.27;;;-0.30;67.50;;;;;;5069792;28;20203;-84
2022/03/06 01:18:51;;;;;;;15.32;8.73;;;-0.10;60.30;;;;;;5069472;28;20245;-84
2022/03/06 01:21:19;;;;;;;15.10;10.30;;;-0.30;60.30;;;;;;5070596;28;20248;-84
2022/03/06 01:23:47;;;;;;;13.18;8.15;;;-0.30;60.20;;;;;;5069416;28;20286;-84
2022/03/06 01:26:17;;;;;;;15.73;8.50;;;-0.30;59.80;;;;;;5069253;28;20580;-84
2022/03/06 01:28:47;;;;;;;10.70;7.90;;;-0.40;60.10;;;;;;5066719;28;20721;-84
2022/03/06 01:31:14;;;;;;;10.48;8.30;;;-0.30;60.20;;;;;;5070070;28;20249;-84
2022/03/06 01:33:41;;;;;;;12.95;8.15;;;-0.40;60.00;;;;;;5069696;28;20199;-84
2022/03/06 01:36:08;;;;;;;11.65;8.45;;;-0.30;60.20;;;;;;5070092;28;20206;-84
2022/03/06 01:38:35;;;;;;;16.42;9.82;;;-0.30;67.20;;;;;;5062706;28;20646;-84
2022/03/06 01:41:03;;;;;;;10.77;7.50;;;;;;;;;;5057238;28;20203;-84
2022/03/06 01:43:30;;;;;;;15.38;9.02;;;-0.40;60.00;;;;;;5063452;28;20554;-84
2022/03/06 01:45:58;;;;;;;12.30;9.02;;;0.20;61.80;;;;;;5069893;28;20260;-84
2022/03/06 01:48:25;;;;;;;13.35;7.50;;;-0.30;61.50;;;;;;5067011;28;20200;-84
2022/03/06 01:50:52;;;;;;;14.68;7.75;;;-0.80;75.90;;;;;;5069544;28;20685;-84
2022/03/06 01:53:20;;;;;;;11.63;7.65;;;-0.70;67.40;;;;;;5069323;28;20624;-85
2022/03/06 01:55:47;;;;;;;18.48;9.50;;;-0.70;61.70;;;;;;5062367;28;20227;-84
2022/03/06 01:58:15;;;;;;;14.88;7.85;;;-0.60;61.90;;;;;;5067837;28;20223;-84
2022/03/06 02:00:44;;;;;;;11.85;8.13;;;-0.60;61.50;;;;;;5069747;28;20200;-84
2022/03/06 02:03:14;;;;;;;12.98;7.68;;;-0.40;62.20;;;;;;5069011;28;20207;-84
2022/03/06 02:05:41;;;;;;;13.45;9.13;;;-0.70;74.90;;;;;;5068860;28;20191;-84
2022/03/06 02:08:08;;;;;;;14.50;8.90;;;-0.60;62.00;;;;;;5067314;28;20266;-84
2022/03/06 02:10:36;;;;;;;18.65;9.40;;;-0.70;61.90;;;;;;5069099;28;20203;-84
2022/03/06 02:13:05;;;;;;;18.00;9.48;;;-0.70;61.90;;;;;;5068998;28;20219;-84
2022/03/06 02:15:32;;;;;;;16.77;9.38;;;;;;;;;;5069365;28;20682;-84
2022/03/06 02:17:59;;;;;;;13.57;9.15;;;-0.80;61.30;;;;;;5067775;28;20623;-84
2022/03/06 02:20:29;;;;;;;10.95;8.23;;;-0.80;62.00;;;;;;5051440;28;20199;-84
2022/03/06 02:22:59;;;;;;;12.27;8.57;;;-0.80;62.00;;;;;;5065941;28;20290;-84
2022/03/06 02:25:30;;;;;;;14.27;9.15;;;-0.90;62.50;;;;;;5068312;28;20199;-84
2022/03/06 02:27:59;;;;;;;9.50;8.20;;;-1.10;63.10;;;;;;5067493;28;20202;-84
2022/03/06 02:30:28;;;;;;;16.67;8.38;;;-1.00;62.60;;;;;;5058849;28;20282;-84
2022/03/06 02:32:57;;;;;;;13.00;7.82;;;-1.10;78.10;;;;;;5068960;28;20226;-84
2022/03/06 02:35:25;;;;;;;13.68;9.45;;;-1.10;63.00;;;;;;5068476;28;20199;-84
2022/03/06 02:37:53;;;;;;;14.27;8.48;;;-1.10;63.00;;;;;;5067559;28;20191;-84
2022/03/06 02:40:23;;;;;;;17.40;9.20;;;-1.20;62.90;;;;;;5061791;28;20204;-84
2022/03/06 02:42:52;;;;;;;17.00;8.52;;;-1.20;63.60;;;;;;5061158;28;20619;-84
2022/03/06 02:45:21;;;;;;;11.40;7.65;;;-1.30;63.40;;;;;;5068287;28;20219;-84
2022/03/06 02:47:49;;;;;;;11.70;7.20;;;-1.30;64.00;;;;;;5067846;28;20202;-84
2022/03/06 02:50:20;;;;;;;15.77;9.27;;;-1.30;64.20;;;;;;5041870;28;20315;-83
2022/03/06 02:52:48;;;;;;;12.63;7.82;;;-1.30;64.20;;;;;;5061722;28;20246;-84
2022/03/06 02:55:17;;;;;;;16.10;8.77;;;-1.40;64.40;;;;;;5068346;28;20199;-83
2022/03/06 02:57:45;;;;;;;10.40;7.90;;;-1.40;78.40;;;;;;5067110;28;20203;-84
2022/03/06 03:00:15;;;;;;;14.20;9.40;;;-1.40;64.60;;;;;;5067270;28;20634;-84
2022/03/06 03:02:42;;;;;;;13.93;8.48;;;-1.40;64.90;;;;;;5068161;28;20299;-84
2022/03/06 03:05:11;;;;;;;15.23;9.60;;;-1.40;64.90;;;;;;5068329;28;20481;-84
2022/03/06 03:07:39;;;;;;;15.50;7.13;;;-1.10;65.70;;;;;;5068444;28;20199;-84
2022/03/06 03:10:07;;;;;;;12.88;7.88;;;-1.70;71.30;;;;;;5061771;28;20191;-84
2022/03/06 03:12:34;;;;;;;11.68;8.23;;;-1.60;66.10;;;;;;5068134;28;20266;-84
2022/03/06 03:15:04;;;;;;;11.13;7.93;;;-1.60;66.60;;;;;;5068569;28;20195;-84
2022/03/06 03:17:31;;;;;;;14.77;8.23;;;;;;;;;;5067472;28;20704;-84
2022/03/06 03:19:58;;;;;;;15.13;10.05;;;-1.60;80.00;;;;;;5051694;28;20551;-84
2022/03/06 03:22:25;;;;;;;14.50;9.50;;;-1.70;80.20;;;;;;5056338;28;20203;-84
2022/03/06 03:24:51;;;;;;;13.77;8.10;;;-1.90;80.70;;;;;;5050576;28;20319;-84
2022/03/06 03:27:18;;;;;;;14.80;9.15;;;-1.80;67.30;;;;;;5067539;28;20196;-84
2022/03/06 03:29:45;;;;;;;13.38;8.63;;;-1.80;66.80;;;;;;5065615;28;20207;-84
2022/03/06 03:32:14;;;;;;;13.65;9.38;;;-1.80;66.80;;;;;;5067999;28;20308;-84
2022/03/06 03:34:41;;;;;;;14.25;8.27;;;;;;;;;;5067835;28;20231;-84
2022/03/06 03:37:08;;;;;;;18.08;10.23;;;;;;;;;;5067028;28;20195;-83
2022/03/06 03:39:35;;;;;;;16.42;8.90;;;-1.80;81.10;;;;;;5064310;28;20272;-84
2022/03/06 03:42:02;;;;;;;10.63;8.38;;;-1.90;66.90;;;;;;5067744;28;20252;-84
2022/03/06 03:44:29;;;;;;;13.10;9.30;;;-1.90;66.70;;;;;;5064198;28;20223;-84
2022/03/06 03:46:58;;;;;;;12.18;8.90;;;;;;;;;;5064565;28;20290;-83
2022/03/06 03:49:26;;;;;;;10.45;8.65;;;-2.00;66.90;;;;;;5056134;28;20262;-83
2022/03/06 03:51:53;;;;;;;17.10;9.55;;;-2.00;82.00;;;;;;5066851;28;20199;-83
2022/03/06 03:54:20;;;;;;;17.30;9.77;;;;;;;;;;5067790;28;20261;-84
2022/03/06 03:56:47;;;;;;;17.58;10.98;;;-2.00;67.40;;;;;;5067214;28;20528;-84
2022/03/06 03:59:14;;;;;;;15.02;9.10;;;;;;;;;;5063322;28;20211;-84
2022/03/06 04:01:41;;;;;;;14.40;9.07;;;-2.00;67.10;;;;;;5067582;28;20226;-85
2022/03/06 04:04:08;;;;;;;14.88;9.82;;;;;;;;;;5067152;28;20238;-84
2022/03/06 04:06:36;;;;;;;16.50;9.77;;;-2.00;66.80;;;;;;5066208;28;20282;-84
2022/03/06 04:09:03;;;;;;;12.60;9.13;;;-2.10;67.80;;;;;;5058080;28;20196;-84
2022/03/06 04:11:31;;;;;;;15.90;10.45;;;-2.10;68.50;;;;;;5062945;28;20319;-84
2022/03/06 04:13:58;;;;;;;17.83;9.73;;;-2.10;68.30;;;;;;5067062;28;20227;-83
2022/03/06 04:16:25;;;;;;;15.32;10.73;;;-2.10;68.20;;;;;;5066538;28;20215;-83
2022/03/06 04:18:51;;;;;;;14.05;9.68;;;-2.20;71.30;;;;;;5053459;28;20199;-84
2022/03/06 04:21:18;;;;;;;16.80;9.88;;;-2.20;68.50;;;;;;5067368;28;20332;-84
2022/03/06 04:23:47;;;;;;;16.00;11.10;;;-2.20;69.10;;;;;;5067473;28;20307;-83
2022/03/06 04:26:16;;;;;;;17.30;10.00;;;-2.30;69.40;;;;;;5066728;28;20208;-84
2022/03/06 04:28:43;;;;;;;15.73;10.80;;;-2.30;69.60;;;;;;5066775;28;20403;-84
2022/03/06 04:31:10;;;;;;;13.10;8.55;;;;;;;;;;5069935;28;20572;-84
2022/03/06 04:33:37;;;;;;;11.68;8.57;;;-2.30;75.40;;;;;;5070536;28;20673;-84
2022/03/06 04:36:05;;;;;;;13.27;10.57;;;-2.00;69.90;;;;;;5070859;28;20223;-84
2022/03/06 04:38:32;;;;;;;14.13;9.52;;;;;;;;;;5068743;28;20219;-84
2022/03/06 04:41:00;;;;;;;21.75;10.32;;;-2.30;69.60;;;;;;5054281;28;20235;-83
2022/03/06 04:43:27;;;;;;;14.00;9.15;;;-2.10;70.80;;;;;;5070161;28;20223;-84
2022/03/06 04:45:54;;;;;;;15.45;9.32;;;;;;;;;;5070327;28;20555;-84
2022/03/06 04:48:21;;;;;;;13.27;9.57;;;-2.50;70.30;;;;;;5069193;28;20664;-84
2022/03/06 04:50:48;;;;;;;15.27;8.60;;;;;;;;;;5071506;28;20253;-84
2022/03/06 04:53:15;;;;;;;18.48;10.23;;;;;;;;;;5070473;28;20296;-84
2022/03/06 04:55:43;;;;;;;13.80;9.05;;;;;;;;;;5071358;28;20199;-83
2022/03/06 04:58:11;;;;;;;19.67;10.05;;;-2.50;71.80;;;;;;5068340;28;20302;-83
2022/03/06 05:00:38;;;;;;;15.38;9.02;;;-2.50;77.90;;;;;;5067752;28;20278;-84
2022/03/06 05:03:05;;;;;;;16.92;10.40;;;-2.50;72.50;;;;;;5070502;28;20257;-83
2022/03/06 05:05:32;;;;;;;12.63;8.77;;;-2.40;73.60;;;;;;5070083;28;20200;-83
2022/03/06 05:07:59;;;;;;;17.20;9.98;;;;;;;;;;5069984;28;20207;-83
2022/03/06 05:10:26;;;;;;;20.77;11.13;;;-2.50;71.60;;;;;;5069439;28;20206;-84
2022/03/06 05:12:53;;;;;;;16.13;9.18;;;-2.50;72.60;;;;;;5069966;28;20208;-83
2022/03/06 05:15:21;;;;;;;16.02;9.60;;;-2.40;85.80;;;;;;5069568;28;20208;-84
2022/03/06 05:17:48;;;;;;;15.38;9.13;;;-2.50;85.90;;;;;;5070348;28;20231;-83
2022/03/06 05:20:15;;;;;;;13.02;8.35;;;-2.50;71.80;;;;;;5059347;28;20262;-84
2022/03/06 05:22:43;;;;;;;12.25;8.88;;;-2.60;72.80;;;;;;5070510;28;20242;-84
2022/03/06 05:25:11;;;;;;;14.57;9.82;;;-2.60;72.30;;;;;;5069898;28;20286;-84
2022/03/06 05:27:38;;;;;;;16.92;10.00;;;-2.70;80.50;;;;;;5069171;28;20321;-83
2022/03/06 05:30:08;;;;;;;18.00;10.23;;;-2.70;73.10;;;;;;5066145;28;20726;-84
2022/03/06 05:32:37;;;;;;;15.93;9.10;;;-2.60;73.40;;;;;;5069683;28;20723;-83
2022/03/06 05:35:05;;;;;;;15.65;8.80;;;-2.70;79.70;;;;;;5043353;28;20426;-83
2022/03/06 05:37:32;;;;;;;21.40;10.55;;;-2.60;72.80;;;;;;5049071;28;20240;-83
2022/03/06 05:39:59;;;;;;;19.13;10.57;;;-2.60;73.10;;;;;;5061715;28;20294;-83
2022/03/06 05:42:26;;;;;;;14.48;10.02;;;-2.60;86.70;;;;;;5068529;28;20264;-83
2022/03/06 05:44:53;;;;;;;17.02;10.50;;;-2.60;74.00;;;;;;5069544;28;20545;-84
2022/03/06 05:47:20;;;;;;;19.05;9.82;;;;;;;;;;5069245;28;20312;-84
2022/03/06 05:49:48;;;;;;;15.02;9.50;;;-2.50;74.50;;;;;;5056368;28;20200;-84
2022/03/06 05:52:16;;;;;;;13.13;9.75;;;-2.40;74.70;;;;;;5070220;28;20219;-84
2022/03/06 05:54:43;;;;;;;12.55;9.63;;;-2.30;75.30;;;;;;5068849;28;20251;-84
2022/03/06 05:57:10;;;;;;;16.73;9.63;;;-2.30;75.80;;;;;;5056124;28;20191;-83
2022/03/06 05:59:37;;;;;;;15.20;9.52;;;-2.30;75.50;;;;;;5068617;28;20205;-83
2022/03/06 06:02:04;;;;;;;15.07;8.85;;;-2.30;75.90;;;;;;5067703;28;20280;-83
2022/03/06 06:04:31;;;;;;;16.65;9.50;;;-2.20;75.20;;;;;;5069245;28;20268;-83
2022/03/06 06:07:00;;;;;;;17.98;11.55;;;-2.10;75.00;;;;;;5068649;28;20720;-83
2022/03/06 06:09:27;;;;;;;15.05;10.45;;;;;;;;;;5068118;28;20213;-83
2022/03/06 06:11:54;;;;;;;17.88;10.80;;;-2.00;73.80;;;;;;5069181;28;20203;-83
2022/03/06 06:14:21;;;;;;;18.98;10.95;;;-2.00;74.30;;;;;;5056356;28;20334;-82
2022/03/06 06:16:48;;;;;;;18.45;10.45;;;-1.50;74.90;;;;;;5068848;28;20230;-84
2022/03/06 06:19:15;;;;;;;14.70;11.18;;;;;;;;;;5059277;28;20204;-84
2022/03/06 06:21:43;;;;;;;15.93;9.75;;;-1.60;73.40;;;;;;5059956;28;20199;-84
2022/03/06 06:24:13;;;;;;;10.75;8.65;;;-1.50;87.70;;;;;;5066963;28;20211;-84
2022/03/06 06:26:40;;;;;;;18.08;11.13;;;;;;;;;;5068617;28;20203;-83
2022/03/06 06:29:07;;;;;;;20.27;10.75;;;-1.50;73.10;;;;;;5060337;28;20201;-84
2022/03/06 06:31:34;;;;;;;18.25;10.77;;;-1.50;73.80;;;;;;5056777;28;20309;-84
2022/03/06 06:34:01;;;;;;;14.95;10.48;;;-1.30;79.20;;;;;;5068548;28;20255;-84
2022/03/06 06:36:28;;;;;;;17.90;12.27;;;-1.30;79.10;;;;;;5067464;28;20618;-83
2022/03/06 06:38:55;;;;;;;18.33;9.93;;;-1.30;73.70;;;;;;5067024;28;20715;-84
2022/03/06 06:41:23;;;;;;;18.05;11.25;;;-1.30;74.40;;;;;;5064550;28;20256;-84
2022/03/06 06:43:50;;;;;;;18.70;11.45;;;-1.20;74.20;;;;;;5055566;28;20280;-84
2022/03/06 06:46:17;;;;;;;24.35;10.50;;;;;;;;;;5067890;28;20286;-84
2022/03/06 06:48:44;;;;;;;15.00;11.10;;;-1.10;73.30;;;;;;5062564;28;20258;-84
2022/03/06 06:51:11;;;;;;;13.77;10.75;;;-0.80;86.50;;;;;;5058858;28;20266;-83
2022/03/06 06:53:38;;;;;;;13.80;9.65;;;-0.90;74.10;;;;;;5067458;28;20227;-82
2022/03/06 06:56:06;;;;;;;16.17;10.23;;;-0.80;73.80;;;;;;5068020;28;20678;-82
2022/03/06 06:58:34;;;;;;;16.20;11.48;;;-0.70;73.40;;;;;;5067185;28;20220;-83
2022/03/06 07:01:01;;;;;;;15.95;9.00;;;;;;;;;;5067949;28;20264;-84
2022/03/06 07:03:28;;;;;;;16.05;10.75;;;;;;;;;;5067144;28;20245;-84
2022/03/06 07:05:56;;;;;;;20.60;11.90;;;-0.50;72.80;;;;;;5068738;28;20192;-83
2022/03/06 07:08:23;;;;;;;14.27;10.57;;;-0.40;73.20;;;;;;5067388;28;20318;-83
2022/03/06 07:10:51;;;;;;;16.48;11.30;;;;;;;;;;5068341;28;20758;-83
2022/03/06 07:13:18;;;;;;;16.15;11.27;;;;;;;;;;5067900;28;20223;-84
2022/03/06 07:15:47;;;;;;;18.33;11.32;;;0.20;73.30;;;;;;5068647;28;20568;-85
2022/03/06 07:18:14;;;;;;;13.50;9.55;;;;;;;;;;5066081;28;20278;-85
2022/03/06 07:20:42;;;;;;;18.13;11.27;;;;;;;;;;5061507;28;20240;-84
2022/03/06 07:23:09;;;;;;;14.63;10.40;;;;;;;;;;5068629;28;20207;-84
2022/03/06 07:25:36;;;;;;;20.42;11.18;;;;;;;;;;5067804;28;20230;-84
2022/03/06 07:28:05;;;;;;;17.13;11.07;;;0.40;71.00;;;;;;5067431;28;20249;-86
2022/03/06 07:30:32;;;;;;;18.83;11.75;;;0.50;71.20;;;;;;5066885;28;20207;-84
2022/03/06 07:33:01;;;;;;;15.50;11.50;;;0.60;83.90;;;;;;5067600;28;20322;-84
2022/03/06 07:35:29;;;;;;;17.80;10.82;;;0.60;70.70;;;;;;5067392;28;20234;-84
2022/03/06 07:37:56;;;;;;;16.65;10.70;;;0.70;71.00;;;;;;5060460;28;20389;-84
2022/03/06 07:40:24;;;;;;;17.85;11.32;;;0.70;70.60;;;;;;5061350;28;20259;-84
2022/03/06 07:42:51;;;;;;;14.20;11.05;;;;;;;;;;5063314;28;20233;-84
2022/03/06 07:45:19;;;;;;;20.13;11.23;;;0.90;83.00;;;;;;5066907;28;20207;-84
2022/03/06 07:47:46;;;;;;;16.27;11.73;;;;;;;;;;5066688;28;20203;-84
2022/03/06 07:50:15;;;;;;;15.15;11.50;;;1.10;68.30;;;;;;5051276;28;20606;-84
2022/03/06 07:52:42;;;;;;;16.08;10.43;;;1.90;69.80;;;;;;5058494;28;20253;-84
2022/03/06 07:55:10;;;;;;;19.23;12.77;;;1.30;79.60;;;;;;5047795;28;20259;-84
2022/03/06 07:57:37;;;;;;;17.88;11.93;;;;;;;;;;5050778;28;20195;-85
2022/03/06 08:00:06;;;;;;;19.40;12.50;;;1.40;67.70;;;;;;5066350;28;20199;-85
2022/03/06 08:02:38;;;;;;;19.73;12.50;;;1.50;68.10;;;;;;5065755;28;20199;-84
2022/03/06 08:05:06;;;;;;;17.67;11.30;;;1.60;71.10;;;;;;5065875;28;20700;-84
2022/03/06 08:07:35;;;;;;;18.13;12.63;;;1.60;67.50;;;;;;5070601;28;20201;-85
2022/03/06 08:10:04;;;;;;;20.05;12.18;;;1.90;78.50;;;;;;5070869;28;20587;-84
2022/03/06 08:12:31;;;;;;;18.80;11.07;;;1.90;67.00;;;;;;5070431;28;20701;-85
2022/03/06 08:14:58;;;;;;;18.77;12.25;;;;;;;;;;5071305;28;20254;-85
2022/03/06 08:17:25;;;;;;;17.67;11.57;;;1.90;65.60;;;;;;5070699;28;20288;-84
2022/03/06 08:19:53;;;;;;;16.05;10.55;;;2.10;65.80;;;;;;5065447;28;20662;-84
2022/03/06 08:22:21;;;;;;;18.77;11.60;;;;;;;;;;5071101;28;20661;-85
2022/03/06 08:24:49;;;;;;;19.33;12.05;;;2.50;69.00;;;;;;5070636;28;20200;-84
2022/03/06 08:27:16;;;;;;;17.95;12.43;;;2.50;76.10;;;;;;5070589;28;20204;-85
2022/03/06 08:29:43;;;;;;;16.73;11.18;;;2.40;64.90;;;;;;5062478;28;20665;-85
2022/03/06 08:32:10;;;;;;;20.50;13.43;;;2.60;64.60;;;;;;5070917;28;20199;-84
2022/03/06 08:34:37;;;;;;;19.92;11.35;;;2.70;64.20;;;;;;5070305;28;20219;-85
2022/03/06 08:37:05;;;;;;;14.27;10.73;;;2.90;63.40;;;;;;5067036;28;20645;-84
2022/03/06 08:39:32;;;;;;;16.90;11.57;;;2.70;73.50;;;;;;5064155;28;20200;-84
2022/03/06 08:42:00;;;;;;;15.85;10.85;;;2.80;62.10;;;;;;5068916;28;20207;-85
2022/03/06 08:44:27;;;;;;;17.77;13.13;;;2.90;61.70;;;;;;5070598;28;20203;-85
2022/03/06 08:46:54;;;;;;;17.90;11.10;;;3.10;61.70;;;;;;5070237;28;20252;-85
2022/03/06 08:49:21;;;;;;;17.42;11.68;;;3.10;60.40;;;;;;5069517;28;20199;-85
2022/03/06 08:51:48;;;;;;;18.80;12.27;;;3.20;61.30;;;;;;5069971;28;20223;-85
2022/03/06 08:54:15;;;;;;;17.65;10.93;;;3.20;61.00;;;;;;5070433;28;20543;-86
2022/03/06 08:56:42;;;;;;;16.52;10.73;;;3.20;59.50;;;;;;5070230;28;20223;-86
2022/03/06 08:59:10;;;;;;;14.70;10.00;;;3.50;59.20;;;;;;5069675;28;20206;-86
2022/03/06 09:01:37;;;;;;;15.13;11.50;;;3.20;58.60;;;;;;5070810;28;20243;-86
2022/03/06 09:04:04;;;;;;;14.20;9.82;;;3.40;58.40;;;;;;5067215;28;20257;-85
2022/03/06 09:06:31;;;;;;;14.25;9.23;;;3.40;67.20;;;;;;5069201;28;20234;-85
2022/03/06 09:08:58;;;;;;;14.60;9.10;;;3.50;59.70;;;;;;5067558;28;20618;-85
2022/03/06 09:11:25;;;;;;;16.83;9.00;;;3.40;57.60;;;;;;5070096;28;20200;-86
2022/03/06 09:13:52;;;;;;;18.92;10.82;;;4.20;68.20;;;;;;5070359;28;20301;-86
2022/03/06 09:16:20;;;;;;;16.85;11.50;;;3.50;57.90;;;;;;5069196;28;20234;-86
2022/03/06 09:18:47;;;;;;;14.70;10.32;;;3.80;56.80;;;;;;5066847;28;20604;-86
2022/03/06 09:21:15;;;;;;;14.13;10.15;;;3.70;56.90;;;;;;5069382;28;20195;-86
2022/03/06 09:23:41;;;;;;;15.20;9.13;;;3.80;56.70;;;;;;5070347;28;20203;-87
2022/03/06 09:26:08;;;;;;;15.60;11.02;;;3.80;56.80;;;;;;5069676;28;20260;-87
2022/03/06 09:28:35;;;;;;;13.15;8.60;;;4.10;55.80;;;;;;5066619;28;20256;-86
2022/03/06 09:31:02;;;;;;;16.67;11.40;;;3.80;55.90;;;;;;5062466;28;20638;-86
2022/03/06 09:33:33;;;;;;;15.57;9.60;;;3.90;56.10;;;;;;5063958;28;20202;-85
2022/03/06 09:36:01;;;;;;;14.40;9.50;;;4.00;56.50;;;;;;5070075;28;20281;-85
2022/03/06 09:38:28;;;;;;;15.18;10.13;;;4.00;56.30;;;;;;5066856;28;20199;-85
2022/03/06 09:40:56;;;;;;;13.63;8.95;;;4.20;56.70;;;;;;5051639;28;20228;-85
2022/03/06 09:43:23;;;;;;;13.57;9.18;;;4.10;55.60;;;;;;5066631;28;20203;-86
2022/03/06 09:45:49;;;;;;;10.73;8.88;;;4.10;55.70;;;;;;5069649;28;20297;-85
2022/03/06 09:48:18;;;;;;;13.40;9.75;;;4.10;62.60;;;;;;5063427;28;20326;-86
2022/03/06 09:50:47;;;;;;;12.73;8.73;;;4.20;55.20;;;;;;5062660;28;20252;-87
2022/03/06 09:53:14;;;;;;;18.83;10.00;;;4.30;54.90;;;;;;5069304;28;20277;-86
2022/03/06 09:55:41;;;;;;;14.57;10.50;;;4.30;55.00;;;;;;5069331;28;20237;-86
2022/03/06 09:58:08;;;;;;;15.00;10.80;;;4.30;55.00;;;;;;5068473;28;20666;-85
2022/03/06 10:00:35;;;;;;;18.35;10.57;;;4.30;54.50;;;;;;5051748;28;20204;-85
2022/03/06 10:03:04;;;;;;;16.80;10.30;;;4.40;54.60;;;;;;5068124;28;20554;-86
2022/03/06 10:05:36;;;;;;;12.18;9.35;;;4.40;60.70;;;;;;5067647;28;20268;-85
2022/03/06 10:08:21;;;;;;;15.25;10.30;;;4.40;53.50;;;;;;5068255;28;20204;-85
2022/03/06 10:10:50;;;;;;;13.90;9.88;;;4.50;54.20;;;;;;5065866;28;20269;-85
2022/03/06 10:13:26;;;;;;;13.65;9.68;;;4.70;53.70;;;;;;5067618;28;20199;-85
2022/03/06 10:16:05;;;;;;;16.75;11.05;;;4.60;52.90;;;;;;5068057;28;20280;-85
2022/03/06 10:18:34;;;;;;;12.00;9.07;;;4.50;53.20;;;;;;5066832;28;20191;-86
2022/03/06 10:21:11;;;;;;;14.52;8.90;;;4.50;52.90;;;;;;5067915;28;20592;-86
2022/03/06 10:23:43;;;;;;;15.00;10.10;;;4.40;59.70;;;;;;5055363;28;20199;-86
2022/03/06 10:26:15;;;;;;;14.93;9.20;;;4.20;52.60;;;;;;5068464;28;20199;-85
2022/03/06 10:28:47;;;;;;;16.67;10.25;;;4.20;52.70;;;;;;5068471;28;20553;-86
2022/03/06 10:31:15;;;;;;;13.48;9.90;;;4.30;53.10;;;;;;5068301;28;20199;-85
2022/03/06 10:33:53;;;;;;;16.25;10.20;;;4.40;52.80;;;;;;5068250;28;20295;-85
2022/03/06 10:36:30;;;;;;;14.73;9.52;;;5.00;53.30;;;;;;5068632;28;20282;-86
2022/03/06 10:38:58;;;;;;;12.75;9.98;;;4.20;52.70;;;;;;5048034;28;20200;-86
2022/03/06 10:41:35;;;;;;;16.33;10.45;;;4.40;52.60;;;;;;5064899;28;20207;-86
2022/03/06 10:44:02;;;;;;;13.20;10.07;;;4.30;52.80;;;;;;5068471;28;20195;-86
2022/03/06 10:46:33;;;;;;;14.95;9.98;;;4.30;52.80;;;;;;5067958;28;20226;-86
2022/03/06 10:49:01;;;;;;;17.75;11.00;;;4.40;52.30;;;;;;5063204;28;20228;-86
2022/03/06 10:51:29;;;;;;;11.32;9.55;;;4.50;58.80;;;;;;5067461;28;20701;-87
2022/03/06 10:54:02;;;;;;;13.25;9.27;;;4.70;56.90;;;;;;5068117;28;20625;-86
2022/03/06 10:56:29;;;;;;;15.68;10.38;;;4.50;50.70;;;;;;5067723;28;20615;-86
2022/03/06 10:58:58;;;;;;;13.52;9.15;;;4.50;52.60;;;;;;5062874;28;20718;-86
2022/03/06 11:01:26;;;;;;;12.90;8.95;;;4.60;50.60;;;;;;5067574;28;20300;-86
2022/03/06 11:03:53;;;;;;;17.20;11.63;;;4.70;50.40;;;;;;5068008;28;20195;-85
2022/03/06 11:06:21;;;;;;;13.15;10.18;;;4.50;59.20;;;;;;5067711;28;20207;-86
2022/03/06 11:08:48;;;;;;;13.32;10.10;;;4.60;51.00;;;;;;5067643;28;20207;-86
2022/03/06 11:11:17;;;;;;;23.08;11.30;;;5.10;51.80;;;;;;5068538;28;20602;-86
2022/03/06 11:13:44;;;;;;;14.10;9.95;;;4.60;58.60;;;;;;5067521;28;20223;-86
2022/03/06 11:16:11;;;;;;;14.90;10.90;;;4.60;52.50;;;;;;5067278;28;20708;-86
2022/03/06 11:18:39;;;;;;;14.88;10.10;;;4.90;52.70;;;;;;5068067;28;20195;-86
2022/03/06 11:21:06;;;;;;;15.57;10.48;;;4.90;52.60;;;;;;5067680;28;20199;-86
2022/03/06 11:23:37;;;;;;;12.95;9.40;;;5.00;51.00;;;;;;5067913;28;20199;-86
2022/03/06 11:26:42;;;;;;;16.90;10.00;;;5.10;57.80;;;;;;5067149;28;20281;-86
2022/03/06 11:29:48;;;;;;;18.98;10.20;;;5.20;50.70;;;;;;5063188;28;20203;-86
2022/03/06 11:32:24;;;;;;;12.90;8.65;;;5.20;49.80;;;;;;5054682;28;20223;-85
2022/03/06 11:34:53;;;;;;;14.82;9.65;;;5.30;49.50;;;;;;5048028;28;20237;-85
2022/03/06 11:37:21;;;;;;;12.70;9.45;;;5.30;49.10;;;;;;5059913;28;20490;-86
2022/03/06 11:39:49;;;;;;;14.35;10.57;;;5.30;49.60;;;;;;5065539;28;20253;-85
2022/03/06 11:42:56;;;;;;;13.07;9.77;;;5.20;50.00;;;;;;5062148;28;20245;-86
2022/03/06 11:45:44;;;;;;;15.05;9.63;;;5.30;49.90;;;;;;5060225;28;20641;-86
2022/03/06 11:48:12;;;;;;;13.38;10.27;;;5.30;49.30;;;;;;5061140;28;20294;-86
2022/03/06 11:50:39;;;;;;;12.93;9.43;;;5.20;49.00;;;;;;5070454;28;20195;-86
2022/03/06 11:53:21;;;;;;;12.55;9.65;;;5.10;52.50;;;;;;5066234;28;20272;-85
2022/03/06 11:55:48;;;;;;;11.25;8.65;;;4.80;54.80;;;;;;5047670;28;20263;-86
2022/03/06 11:58:55;;;;;;;15.98;10.35;;;4.90;49.60;;;;;;5061615;28;20199;-86
2022/03/06 12:01:28;;;;;;;13.05;9.00;;;5.00;56.40;;;;;;5056380;28;20206;-85
2022/03/06 12:03:55;;;;;;;13.15;9.18;;;5.20;50.00;;;;;;5058486;28;20249;-86
2022/03/06 12:06:24;;;;;;;13.05;8.95;;;5.20;54.60;;;;;;5066377;28;20209;-86
2022/03/06 12:08:52;;;;;;;11.38;9.05;;;5.20;48.80;;;;;;5063783;28;20350;-85
2022/03/06 12:11:20;;;;;;;14.75;9.38;;;5.10;48.60;;;;;;5067269;28;20655;-85
2022/03/06 12:13:51;;;;;;;10.95;8.13;;;5.20;48.90;;;;;;5067230;28;20200;-86
2022/03/06 12:16:18;;;;;;;12.30;9.80;;;5.50;55.90;;;;;;5066014;28;20227;-85
2022/03/06 12:19:04;;;;;;;14.63;9.38;;;5.40;48.60;;;;;;5057758;28;20264;-85
2022/03/06 12:21:37;;;;;;;12.40;8.70;;;5.40;48.60;;;;;;5064070;28;20198;-85
2022/03/06 12:24:10;;;;;;;10.45;7.85;;;5.50;48.80;;;;;;5057730;28;20200;-86
2022/03/06 12:26:45;;;;;;;12.35;8.35;;;5.60;53.30;;;;;;5066486;28;20711;-85
2022/03/06 12:29:57;;;;;;;11.57;8.43;;;5.80;49.50;;;;;;5063976;28;20288;-85
2022/03/06 12:32:32;;;;;;;11.13;8.40;;;6.10;53.50;;;;;;5047745;28;20720;-85
2022/03/06 12:35:00;;;;;;;15.60;10.25;;;5.90;54.30;;;;;;5060104;28;20218;-85
2022/03/06 12:37:29;;;;;;;10.77;8.50;;;5.70;48.00;;;;;;5067002;28;20203;-86
2022/03/06 12:39:56;;;;;;;12.57;9.32;;;5.80;53.30;;;;;;5060668;28;20897;-85
2022/03/06 12:42:25;;;;;;;12.20;8.63;;;5.70;47.10;;;;;;5060860;28;20223;-86
2022/03/06 12:44:55;;;;;;;8.88;7.68;;;5.90;47.10;;;;;;5066224;28;20641;-85
2022/03/06 12:47:23;;;;;;;11.30;8.65;;;5.50;53.60;;;;;;5065713;28;20241;-85
2022/03/06 12:49:50;;;;;;;10.07;7.80;;;5.60;47.90;;;;;;5061900;28;20257;-85
2022/03/06 12:52:18;;;;;;;11.57;8.20;;;6.50;49.30;;;;;;5068982;28;20666;-85
2022/03/06 12:54:46;;;;;;;12.30;8.48;;;5.40;49.30;;;;;;5070480;28;20199;-85
2022/03/06 12:57:13;;;;;;;11.45;8.43;;;5.60;48.70;;;;;;5070285;28;20207;-85